createdAt,value
2022-12-22T00:02:43.690Z,8.49
2022-12-22T00:05:36.580Z,8.51
2022-12-22T00:08:21.339Z,8.50
2022-12-22T00:11:07.272Z,8.50
2022-12-22T00:13:53.131Z,8.49
2022-12-22T00:16:38.752Z,8.50
2022-12-22T00:19:31.538Z,8.51
2022-12-22T00:22:19.968Z,8.51
2022-12-22T00:25:04.777Z,8.51
2022-12-22T00:27:50.747Z,8.52
2022-12-22T00:30:36.640Z,8.52
2022-12-22T00:33:24.308Z,8.52
2022-12-22T00:36:09.727Z,8.51
2022-12-22T00:38:54.427Z,8.51
2022-12-22T00:41:39.255Z,8.52
2022-12-22T00:44:24.613Z,8.53
2022-12-22T00:47:09.444Z,8.54
2022-12-22T00:49:54.868Z,8.51
2022-12-22T00:52:42.374Z,8.51
2022-12-22T00:55:40.349Z,8.52
2022-12-22T00:58:33.158Z,8.53
2022-12-22T01:01:18.016Z,8.52
2022-12-22T01:04:03.490Z,8.53
2022-12-22T01:06:50.679Z,8.53
2022-12-22T01:09:36.464Z,8.54
2022-12-22T01:12:39.584Z,8.56
2022-12-22T01:15:34.209Z,8.55
2022-12-22T01:18:19.392Z,8.55
2022-12-22T01:21:04.112Z,8.55
2022-12-22T01:23:49.504Z,8.57
2022-12-22T01:26:34.415Z,8.57
2022-12-22T01:29:19.263Z,8.58
2022-12-22T01:32:04.093Z,8.59
2022-12-22T01:34:48.789Z,8.58
2022-12-22T01:37:33.736Z,8.59
2022-12-22T01:40:18.669Z,8.61
2022-12-22T01:43:03.517Z,8.60
2022-12-22T01:45:51.565Z,8.61
2022-12-22T01:48:50.321Z,8.64
2022-12-22T01:51:43.731Z,8.63
2022-12-22T01:54:30.883Z,8.62
2022-12-22T01:57:16.094Z,8.62
2022-12-22T02:00:01.942Z,8.64
2022-12-22T02:02:51.225Z,8.64
2022-12-22T02:05:38.609Z,8.64
2022-12-22T02:08:54.825Z,8.65
2022-12-22T02:11:56.565Z,8.66
2022-12-22T02:14:56.798Z,8.65
2022-12-22T02:18:13.274Z,8.66
2022-12-22T02:21:21.702Z,8.66
2022-12-22T02:24:36.008Z,8.66
2022-12-22T02:27:21.307Z,8.65
2022-12-22T02:30:13.346Z,8.66
2022-12-22T02:33:08.955Z,8.66
2022-12-22T02:36:04.876Z,8.68
2022-12-22T02:39:05.920Z,8.68
2022-12-22T02:42:25.327Z,8.68
2022-12-22T02:45:33.777Z,8.68
2022-12-22T02:48:45.772Z,8.69
2022-12-22T02:51:37.518Z,8.69
2022-12-22T02:54:24.315Z,8.68
2022-12-22T02:57:09.259Z,8.69
2022-12-22T02:59:54.230Z,8.69
2022-12-22T03:02:39.456Z,8.69
2022-12-22T03:05:24.996Z,8.69
2022-12-22T03:08:09.794Z,8.69
2022-12-22T03:10:55.170Z,8.69
2022-12-22T03:13:40.371Z,8.71
2022-12-22T03:16:25.807Z,8.70
2022-12-22T03:19:11.267Z,8.71
2022-12-22T03:21:56.209Z,8.71
2022-12-22T03:24:40.982Z,8.70
2022-12-22T03:27:07.447Z,8.70
2022-12-22T03:29:33.819Z,8.70
2022-12-22T03:32:00.277Z,8.70
2022-12-22T03:34:26.766Z,8.71
2022-12-22T03:36:53.159Z,8.70
2022-12-22T03:39:19.543Z,8.72
2022-12-22T03:42:04.736Z,8.73
2022-12-22T03:44:49.587Z,8.73
2022-12-22T03:47:16.102Z,8.74
2022-12-22T03:49:42.659Z,8.74
2022-12-22T03:52:09.161Z,8.73
2022-12-22T03:54:35.588Z,8.73
2022-12-22T03:57:02.135Z,8.73
2022-12-22T03:59:28.688Z,8.74
2022-12-22T04:01:55.471Z,8.73
2022-12-22T04:04:25.334Z,8.73
2022-12-22T04:06:51.952Z,8.73
2022-12-22T04:09:18.655Z,8.72
2022-12-22T04:12:03.775Z,8.73
2022-12-22T04:14:34.187Z,8.73
2022-12-22T04:17:06.480Z,8.73
2022-12-22T04:19:33.219Z,8.74
2022-12-22T04:21:59.801Z,8.74
2022-12-22T04:24:26.259Z,8.74
2022-12-22T04:26:53.162Z,8.74
2022-12-22T04:29:19.555Z,8.73
2022-12-22T04:31:46.146Z,8.73
2022-12-22T04:34:12.673Z,8.73
2022-12-22T04:36:40.170Z,8.74
2022-12-22T04:39:06.597Z,8.73
2022-12-22T04:41:33.003Z,8.74
2022-12-22T04:43:59.413Z,8.74
2022-12-22T04:46:25.897Z,8.72
2022-12-22T04:48:57.870Z,8.72
2022-12-22T04:51:26.819Z,8.74
2022-12-22T04:53:53.245Z,8.73
2022-12-22T04:56:19.806Z,8.73
2022-12-22T04:58:46.231Z,8.73
2022-12-22T05:01:15.545Z,8.74
2022-12-22T05:03:42.418Z,8.73
2022-12-22T05:06:09.658Z,8.73
2022-12-22T05:08:36.237Z,8.73
2022-12-22T05:11:05.849Z,8.72
2022-12-22T05:13:32.897Z,8.70
2022-12-22T05:16:17.701Z,8.72
2022-12-22T05:18:45.697Z,8.70
2022-12-22T05:21:17.874Z,8.70
2022-12-22T05:23:44.809Z,8.70
2022-12-22T05:26:12.063Z,8.70
2022-12-22T05:28:39.171Z,8.70
2022-12-22T05:31:11.267Z,8.71
2022-12-22T05:33:37.748Z,8.69
2022-12-22T05:36:04.641Z,8.69
2022-12-22T05:38:31.143Z,8.69
2022-12-22T05:41:03.658Z,8.69
2022-12-22T05:43:31.402Z,8.69
2022-12-22T05:45:58.642Z,8.69
2022-12-22T05:48:30.767Z,8.69
2022-12-22T05:50:58.949Z,8.69
2022-12-22T05:53:25.791Z,8.67
2022-12-22T05:55:52.841Z,8.68
2022-12-22T05:58:19.403Z,8.68
2022-12-22T06:00:46.243Z,8.67
2022-12-22T06:03:12.831Z,8.67
2022-12-22T06:05:39.552Z,8.66
2022-12-22T06:08:05.956Z,8.66
2022-12-22T06:10:32.659Z,8.64
2022-12-22T06:12:59.253Z,8.62
2022-12-22T06:15:25.656Z,8.62
2022-12-22T06:17:52.060Z,8.60
2022-12-22T06:20:18.495Z,8.60
2022-12-22T06:22:44.929Z,8.58
2022-12-22T06:25:17.714Z,8.57
2022-12-22T06:27:45.419Z,8.56
2022-12-22T06:30:12.137Z,8.56
2022-12-22T06:32:39.260Z,8.55
2022-12-22T06:35:07.779Z,8.55
2022-12-22T06:37:34.218Z,8.53
2022-12-22T06:40:01.490Z,8.51
2022-12-22T06:42:46.632Z,8.49
2022-12-22T06:45:13.209Z,8.48
2022-12-22T06:47:39.725Z,8.48
2022-12-22T06:50:07.019Z,8.48
2022-12-22T06:52:33.554Z,8.45
2022-12-22T06:55:02.190Z,8.44
2022-12-22T06:57:29.258Z,8.44
2022-12-22T06:59:57.858Z,8.43
2022-12-22T07:02:25.281Z,8.43
2022-12-22T07:04:51.973Z,8.42
2022-12-22T07:07:18.427Z,8.42
2022-12-22T07:09:44.925Z,8.40
2022-12-22T07:12:11.313Z,8.40
2022-12-22T07:14:37.734Z,8.41
2022-12-22T07:17:04.234Z,8.42
2022-12-22T07:19:30.611Z,8.41
2022-12-22T07:21:57.381Z,8.37
2022-12-22T07:24:26.014Z,8.34
2022-12-22T07:26:53.032Z,8.33
2022-12-22T07:29:19.641Z,8.31
2022-12-22T07:31:46.666Z,8.33
2022-12-22T07:34:13.475Z,8.34
2022-12-22T07:36:40.359Z,8.34
2022-12-22T07:39:08.507Z,8.33
2022-12-22T07:41:53.717Z,8.31
2022-12-22T07:44:20.511Z,8.29
2022-12-22T07:46:46.984Z,8.26
2022-12-22T07:49:32.381Z,8.23
2022-12-22T07:51:59.602Z,8.17
2022-12-22T07:54:27.617Z,8.15
2022-12-22T07:56:54.207Z,8.16
2022-12-22T07:59:20.677Z,8.14
2022-12-22T08:01:47.472Z,8.13
2022-12-22T08:04:14.662Z,8.12
2022-12-22T08:06:41.298Z,8.14
2022-12-22T08:09:08.917Z,8.12
2022-12-22T08:11:35.654Z,8.10
2022-12-22T08:14:02.395Z,8.08
2022-12-22T08:16:29.434Z,8.03
2022-12-22T08:18:56.512Z,8.00
2022-12-22T08:21:23.276Z,7.98
2022-12-22T08:23:49.747Z,7.92
2022-12-22T08:26:25.111Z,7.88
2022-12-22T08:29:01.838Z,7.84
2022-12-22T08:31:29.617Z,7.79
2022-12-22T08:33:59.112Z,7.76
2022-12-22T08:36:26.557Z,7.69
2022-12-22T08:38:53.189Z,7.65
2022-12-22T08:41:39.538Z,7.60
2022-12-22T08:44:05.921Z,7.53
2022-12-22T08:46:32.423Z,7.50
2022-12-22T08:48:59.288Z,7.46
2022-12-22T08:51:25.691Z,7.42
2022-12-22T08:54:07.446Z,7.37
2022-12-22T08:56:35.007Z,7.30
2022-12-22T08:59:05.152Z,7.25
2022-12-22T09:01:36.003Z,7.24
2022-12-22T09:04:03.172Z,7.24
2022-12-22T09:06:36.339Z,7.25
2022-12-22T09:09:09.281Z,7.27
2022-12-22T09:11:35.768Z,7.26
2022-12-22T09:14:03.699Z,7.29
2022-12-22T09:16:31.687Z,7.29
2022-12-22T09:18:58.171Z,7.33
2022-12-22T09:21:25.240Z,7.35
2022-12-22T09:23:51.842Z,7.42
2022-12-22T09:26:20.423Z,7.47
2022-12-22T09:28:50.379Z,7.49
2022-12-22T09:31:18.363Z,7.52
2022-12-22T09:33:45.160Z,7.55
2022-12-22T09:36:14.906Z,7.61
2022-12-22T09:38:41.976Z,7.64
2022-12-22T09:41:31.630Z,7.70
2022-12-22T09:44:03.449Z,7.74
2022-12-22T09:46:34.320Z,7.77
2022-12-22T09:49:01.040Z,7.78
2022-12-22T09:51:29.291Z,7.83
2022-12-22T09:53:59.111Z,7.85
2022-12-22T09:56:29.405Z,7.88
2022-12-22T09:58:56.950Z,7.93
2022-12-22T10:01:45.096Z,8.04
2022-12-22T10:04:32.085Z,8.07
2022-12-22T10:07:05.488Z,8.13
2022-12-22T10:09:50.839Z,8.18
2022-12-22T10:12:24.896Z,8.20
2022-12-22T10:14:53.715Z,8.24
2022-12-22T10:17:23.777Z,8.22
2022-12-22T10:19:53.370Z,8.16
2022-12-22T10:22:27.371Z,8.18
2022-12-22T10:24:54.403Z,8.24
2022-12-22T10:27:29.124Z,8.27
2022-12-22T10:30:18.858Z,8.28
2022-12-22T10:33:03.644Z,8.21
2022-12-22T10:35:49.000Z,8.17
2022-12-22T10:38:21.912Z,8.23
2022-12-22T10:40:55.248Z,8.22
2022-12-22T10:43:37.429Z,8.22
2022-12-22T10:46:04.900Z,8.25
2022-12-22T10:48:37.230Z,8.30
2022-12-22T10:51:09.812Z,8.28
2022-12-22T10:53:40.419Z,8.29
2022-12-22T10:56:08.241Z,8.28
2022-12-22T10:58:49.116Z,8.29
2022-12-22T11:01:35.815Z,8.28
2022-12-22T11:04:22.980Z,8.31
2022-12-22T11:06:49.683Z,8.33
2022-12-22T11:09:33.035Z,8.31
2022-12-22T11:12:10.689Z,8.32
2022-12-22T11:14:49.293Z,8.35
2022-12-22T11:17:21.562Z,8.36
2022-12-22T11:19:54.195Z,8.38
2022-12-22T11:22:27.926Z,8.40
2022-12-22T11:25:16.332Z,8.43
2022-12-22T11:28:07.855Z,8.45
2022-12-22T11:30:53.552Z,8.47
2022-12-22T11:33:38.800Z,8.47
2022-12-22T11:36:13.955Z,8.50
2022-12-22T11:38:57.587Z,8.52
2022-12-22T11:41:45.432Z,8.51
2022-12-22T11:44:37.197Z,8.52
2022-12-22T11:47:24.366Z,8.51
2022-12-22T11:50:52.576Z,8.48
2022-12-22T11:53:16.365Z,8.48
2022-12-22T11:56:19.979Z,8.48
2022-12-22T11:59:04.896Z,8.50
2022-12-22T12:01:55.253Z,8.49
2022-12-22T12:04:59.296Z,8.52
2022-12-22T12:07:42.142Z,8.54
2022-12-22T12:10:26.766Z,8.54
2022-12-22T12:13:25.626Z,8.60
2022-12-22T12:16:02.364Z,8.61
2022-12-22T12:18:31.865Z,8.71
2022-12-22T12:21:10.448Z,8.81
2022-12-22T12:24:14.968Z,8.93
2022-12-22T12:27:11.882Z,8.96
2022-12-22T12:30:06.200Z,8.95
2022-12-22T12:32:58.273Z,8.94
2022-12-22T12:35:49.263Z,9.01
2022-12-22T12:39:06.783Z,9.09
2022-12-22T12:41:59.313Z,9.16
2022-12-22T12:44:31.784Z,9.13
2022-12-22T12:47:21.156Z,9.12
2022-12-22T12:50:28.674Z,9.04
2022-12-22T12:52:55.129Z,9.00
2022-12-22T12:55:33.563Z,8.96
2022-12-22T12:58:03.375Z,8.92
2022-12-22T13:00:35.805Z,8.89
2022-12-22T13:03:04.213Z,8.84
2022-12-22T13:05:51.085Z,8.76
2022-12-22T13:08:24.791Z,8.68
2022-12-22T13:10:54.127Z,8.59
2022-12-22T13:13:23.719Z,8.47
2022-12-22T13:16:10.101Z,8.37
2022-12-22T13:18:49.748Z,8.25
2022-12-22T13:21:52.137Z,8.11
2022-12-22T13:24:29.436Z,8.07
2022-12-22T13:27:01.849Z,8.02
2022-12-22T13:29:36.140Z,8.02
2022-12-22T13:32:15.678Z,7.99
2022-12-22T13:35:20.686Z,7.96
2022-12-22T13:37:45.089Z,7.89
2022-12-22T13:40:14.316Z,7.91
2022-12-22T13:42:49.012Z,7.90
2022-12-22T13:45:24.241Z,7.85
2022-12-22T13:47:51.257Z,7.89
2022-12-22T13:50:25.237Z,7.90
2022-12-22T13:52:54.379Z,7.88
2022-12-22T13:55:26.026Z,7.86
2022-12-22T13:57:58.486Z,7.83
2022-12-22T14:00:28.386Z,7.85
2022-12-22T14:02:55.059Z,7.86
2022-12-22T14:05:21.707Z,7.86
2022-12-22T14:08:03.217Z,7.87
2022-12-22T14:10:41.994Z,7.86
2022-12-22T14:13:15.622Z,7.83
2022-12-22T14:15:43.805Z,7.82
2022-12-22T14:18:16.663Z,7.83
2022-12-22T14:20:47.115Z,7.86
2022-12-22T14:23:23.309Z,7.85
2022-12-22T14:25:51.065Z,7.86
2022-12-22T14:28:25.285Z,7.88
2022-12-22T14:31:00.951Z,7.88
2022-12-22T14:33:31.626Z,7.89
2022-12-22T14:36:24.953Z,7.90
2022-12-22T14:39:02.517Z,7.88
2022-12-22T14:41:52.050Z,7.88
2022-12-22T14:44:20.592Z,7.87
2022-12-22T14:47:06.708Z,7.88
2022-12-22T14:49:34.260Z,7.86
2022-12-22T14:52:07.856Z,7.87
2022-12-22T14:54:34.833Z,7.87
2022-12-22T14:57:15.705Z,7.90
2022-12-22T14:59:59.340Z,7.89
2022-12-22T15:02:40.762Z,7.89
2022-12-22T15:05:23.925Z,7.88
2022-12-22T15:08:09.248Z,7.87
2022-12-22T15:10:42.072Z,7.90
2022-12-22T15:13:26.483Z,7.91
2022-12-22T15:15:53.181Z,7.87
2022-12-22T15:18:25.322Z,7.87
2022-12-22T15:20:52.114Z,7.86
2022-12-22T15:23:18.543Z,7.86
2022-12-22T15:25:45.805Z,7.85
2022-12-22T15:28:12.279Z,7.86
2022-12-22T15:30:38.819Z,7.86
2022-12-22T15:33:12.266Z,7.88
2022-12-22T15:35:39.890Z,7.86
2022-12-22T15:38:11.971Z,7.86
2022-12-22T15:40:38.580Z,7.85
2022-12-22T15:43:04.972Z,7.86
2022-12-22T15:45:31.606Z,7.86
2022-12-22T15:47:58.623Z,7.86
2022-12-22T15:50:41.309Z,7.87
2022-12-22T15:53:11.939Z,7.85
2022-12-22T15:55:44.842Z,7.85
2022-12-22T15:58:15.087Z,7.85
2022-12-22T16:00:41.539Z,7.83
2022-12-22T16:03:10.802Z,7.84
2022-12-22T16:05:38.558Z,7.83
2022-12-22T16:08:17.690Z,7.81
2022-12-22T16:10:45.928Z,7.80
2022-12-22T16:13:14.658Z,7.81
2022-12-22T16:15:41.847Z,7.80
2022-12-22T16:18:12.074Z,7.81
2022-12-22T16:20:43.174Z,7.79
2022-12-22T16:23:22.875Z,7.79
2022-12-22T16:25:52.426Z,7.77
2022-12-22T16:28:24.448Z,7.77
2022-12-22T16:30:52.124Z,7.76
2022-12-22T16:33:19.768Z,7.75
2022-12-22T16:35:46.317Z,7.76
2022-12-22T16:38:21.720Z,7.76
2022-12-22T16:40:51.656Z,7.77
2022-12-22T16:46:14.988Z,7.78
2022-12-22T16:48:58.971Z,7.79
2022-12-22T16:51:29.239Z,7.78
2022-12-22T16:53:55.785Z,7.78
2022-12-22T16:56:26.650Z,7.79
2022-12-22T16:58:53.085Z,7.78
2022-12-22T17:01:35.751Z,7.79
2022-12-22T17:04:07.892Z,7.79
2022-12-22T17:06:35.008Z,7.78
2022-12-22T17:09:04.547Z,7.79
2022-12-22T17:11:32.534Z,7.79
2022-12-22T17:14:25.414Z,7.82
2022-12-22T17:16:53.301Z,7.80
2022-12-22T17:22:05.517Z,7.83
2022-12-22T17:24:44.443Z,7.82
2022-12-22T17:27:16.560Z,7.82
2022-12-22T17:29:45.116Z,7.82
2022-12-22T17:32:15.367Z,7.83
2022-12-22T17:34:44.004Z,7.83
2022-12-22T17:37:22.092Z,7.84
2022-12-22T17:39:52.215Z,7.84
2022-12-22T17:42:21.522Z,7.85
2022-12-22T17:44:48.931Z,7.85
2022-12-22T17:47:18.873Z,7.86
2022-12-22T17:49:45.383Z,7.86
2022-12-22T17:52:17.442Z,7.87
2022-12-22T17:54:45.543Z,7.86
2022-12-22T17:57:34.796Z,7.89
2022-12-22T18:00:01.671Z,7.87
2022-12-22T18:02:29.479Z,7.87
2022-12-22T18:04:56.099Z,7.87
2022-12-22T18:07:24.754Z,7.88
2022-12-22T18:09:58.963Z,7.89
2022-12-22T18:12:25.965Z,7.89
2022-12-22T18:14:52.769Z,7.89
2022-12-22T18:17:33.364Z,7.91
2022-12-22T18:20:02.026Z,7.90
2022-12-22T18:22:29.527Z,7.91
2022-12-22T18:24:56.895Z,7.91
2022-12-22T18:27:24.144Z,7.92
2022-12-22T18:29:52.244Z,7.92
2022-12-22T18:32:27.207Z,7.93
2022-12-22T18:34:54.491Z,7.93
2022-12-22T18:37:21.367Z,7.93
2022-12-22T18:39:47.991Z,7.95
2022-12-22T18:42:21.685Z,7.97
2022-12-22T18:45:19.019Z,7.98
2022-12-22T18:47:54.019Z,7.99
2022-12-22T18:50:24.369Z,8.01
2022-12-22T18:52:52.402Z,8.00
2022-12-22T18:55:24.493Z,8.01
2022-12-22T18:57:52.635Z,8.01
2022-12-22T19:00:26.758Z,8.03
2022-12-22T19:02:58.119Z,8.04
2022-12-22T19:05:30.354Z,8.06
2022-12-22T19:08:00.161Z,8.06
2022-12-22T19:10:34.488Z,8.09
2022-12-22T19:13:03.789Z,8.09
2022-12-22T19:15:36.577Z,8.10
2022-12-22T19:18:03.096Z,8.11
2022-12-22T19:20:29.849Z,8.11
2022-12-22T19:22:56.316Z,8.12
2022-12-22T19:25:27.229Z,8.14
2022-12-22T19:28:03.700Z,8.15
2022-12-22T19:30:30.235Z,8.15
2022-12-22T19:33:04.406Z,8.18
2022-12-22T19:35:48.605Z,8.17
2022-12-22T19:38:20.237Z,8.21
2022-12-22T19:40:49.103Z,8.21
2022-12-22T19:43:24.480Z,8.22
2022-12-22T19:45:53.569Z,8.24
2022-12-22T19:48:23.393Z,8.27
2022-12-22T19:50:51.143Z,8.29
2022-12-22T19:53:19.865Z,8.32
2022-12-22T19:55:51.120Z,8.35
2022-12-22T19:58:28.508Z,8.39
2022-12-22T20:01:03.856Z,8.41
2022-12-22T20:03:30.937Z,8.46
2022-12-22T20:05:57.759Z,8.49
2022-12-22T20:08:27.520Z,8.53
2022-12-22T20:10:58.348Z,8.56
2022-12-22T20:13:30.058Z,8.57
2022-12-22T20:15:56.663Z,8.59
2022-12-22T20:18:29.432Z,8.63
2022-12-22T20:21:00.115Z,8.65
2022-12-22T20:23:45.457Z,8.69
2022-12-22T20:26:18.229Z,8.70
2022-12-22T20:28:44.876Z,8.71
2022-12-22T20:31:14.442Z,8.74
2022-12-22T20:33:46.516Z,8.76
2022-12-22T20:36:19.447Z,8.77
2022-12-22T20:38:47.293Z,8.77
2022-12-22T20:41:13.980Z,8.79
2022-12-22T20:43:41.868Z,8.82
2022-12-22T20:46:16.977Z,8.85
2022-12-22T20:48:49.237Z,8.85
2022-12-22T20:51:18.993Z,8.86
2022-12-22T20:53:47.061Z,8.89
2022-12-22T20:56:28.671Z,8.91
2022-12-22T20:58:56.884Z,8.90
2022-12-22T21:01:23.869Z,8.91
2022-12-22T21:03:50.852Z,8.94
2022-12-22T21:06:30.154Z,8.97
2022-12-22T21:08:58.766Z,9.00
2022-12-22T21:11:25.917Z,9.02
2022-12-22T21:13:53.210Z,9.03
2022-12-22T21:16:26.000Z,9.04
2022-12-22T21:18:53.669Z,9.05
2022-12-22T21:21:20.922Z,9.06
2022-12-22T21:23:47.867Z,9.07
2022-12-22T21:26:36.228Z,9.11
2022-12-22T21:29:06.754Z,9.12
2022-12-22T21:31:33.352Z,9.11
2022-12-22T21:33:59.885Z,9.11
2022-12-22T21:36:33.881Z,9.11
2022-12-22T21:39:04.832Z,9.13
2022-12-22T21:41:49.896Z,9.13
2022-12-22T21:44:16.577Z,9.15
2022-12-22T21:46:47.820Z,9.15
2022-12-22T21:49:19.818Z,9.17
2022-12-22T21:51:47.795Z,9.15
2022-12-22T21:54:14.900Z,9.15
2022-12-22T21:56:41.332Z,9.15
2022-12-22T21:59:07.735Z,9.16
2022-12-22T22:01:35.857Z,9.17
2022-12-22T22:04:02.498Z,9.18
2022-12-22T22:06:29.006Z,9.17
2022-12-22T22:08:55.539Z,9.17
2022-12-22T22:11:24.252Z,9.18
2022-12-22T22:13:50.952Z,9.18
2022-12-22T22:16:18.421Z,9.17
2022-12-22T22:18:46.214Z,9.17
2022-12-22T22:21:14.760Z,9.16
2022-12-22T22:23:41.182Z,9.18
2022-12-22T22:26:08.557Z,9.19
2022-12-22T22:28:35.583Z,9.18
2022-12-22T22:31:09.684Z,9.21
2022-12-22T22:33:36.461Z,9.21
2022-12-22T22:36:12.087Z,9.22
2022-12-22T22:38:38.746Z,9.21
2022-12-22T22:41:05.217Z,9.19
2022-12-22T22:43:31.665Z,9.20
2022-12-22T22:45:58.234Z,9.20
2022-12-22T22:48:25.659Z,9.21
2022-12-22T22:50:52.176Z,9.21
2022-12-22T22:53:18.837Z,9.21
2022-12-22T22:55:45.268Z,9.22
2022-12-22T22:58:11.830Z,9.23
2022-12-22T23:00:39.533Z,9.22
2022-12-22T23:03:06.378Z,9.24
2022-12-22T23:05:33.190Z,9.23
2022-12-22T23:07:59.669Z,9.24
2022-12-22T23:10:26.061Z,9.24
2022-12-22T23:12:52.457Z,9.25
2022-12-22T23:15:18.916Z,9.24
2022-12-22T23:17:45.349Z,9.25
2022-12-22T23:20:11.946Z,9.25
2022-12-22T23:22:38.699Z,9.25
2022-12-22T23:25:05.370Z,9.25
2022-12-22T23:27:31.804Z,9.26
2022-12-22T23:29:58.211Z,9.26
2022-12-22T23:32:24.878Z,9.26
2022-12-22T23:34:52.034Z,9.25
2022-12-22T23:37:19.524Z,9.26
2022-12-22T23:39:46.762Z,9.26
2022-12-22T23:42:13.366Z,9.26
2022-12-22T23:44:39.777Z,9.27
2022-12-22T23:47:06.226Z,9.28
2022-12-22T23:49:32.666Z,9.26
2022-12-22T23:51:59.050Z,9.28
2022-12-22T23:54:25.559Z,9.28
2022-12-22T23:56:51.984Z,9.27
2022-12-22T23:59:18.391Z,9.28
